sensor_id;sensor_type;location;lat;lon;timestamp;P1;durP1;ratioP1;P2;durP2;ratioP2
43363;SDS011;40636;52.424;-1.948;2023-04-24T00:01:06;13.88;;;7.78;;
43363;SDS011;40636;52.424;-1.948;2023-04-24T00:03:34;15.80;;;7.63;;
43363;SDS011;40636;52.424;-1.948;2023-04-24T00:06:01;11.68;;;7.60;;
43363;SDS011;40636;52.424;-1.948;2023-04-24T00:08:29;13.70;;;8.43;;
43363;SDS011;40636;52.424;-1.948;2023-04-24T00:10:56;13.93;;;7.55;;
43363;SDS011;40636;52.424;-1.948;2023-04-24T00:13:22;12.15;;;7.05;;
43363;SDS011;40636;52.424;-1.948;2023-04-24T00:15:49;15.70;;;8.00;;
43363;SDS011;40636;52.424;-1.948;2023-04-24T00:18:16;12.02;;;7.05;;
43363;SDS011;40636;52.424;-1.948;2023-04-24T00:20:42;13.55;;;7.43;;
43363;SDS011;40636;52.424;-1.948;2023-04-24T00:23:10;16.75;;;8.50;;
43363;SDS011;40636;52.424;-1.948;2023-04-24T00:25:37;11.45;;;6.85;;
43363;SDS011;40636;52.424;-1.948;2023-04-24T00:28:05;17.55;;;7.57;;
43363;SDS011;40636;52.424;-1.948;2023-04-24T00:30:32;11.85;;;7.85;;
43363;SDS011;40636;52.424;-1.948;2023-04-24T00:32:58;10.88;;;7.22;;
43363;SDS011;40636;52.424;-1.948;2023-04-24T00:35:25;12.73;;;7.72;;
43363;SDS011;40636;52.424;-1.948;2023-04-24T00:37:52;12.18;;;7.65;;
43363;SDS011;40636;52.424;-1.948;2023-04-24T00:40:18;13.82;;;7.90;;
43363;SDS011;40636;52.424;-1.948;2023-04-24T00:42:45;12.10;;;6.93;;
43363;SDS011;40636;52.424;-1.948;2023-04-24T00:45:12;11.90;;;7.35;;
43363;SDS011;40636;52.424;-1.948;2023-04-24T00:47:40;13.15;;;7.15;;
43363;SDS011;40636;52.424;-1.948;2023-04-24T00:50:08;10.32;;;6.78;;
43363;SDS011;40636;52.424;-1.948;2023-04-24T00:52:35;12.50;;;7.82;;
43363;SDS011;40636;52.424;-1.948;2023-04-24T00:55:02;10.70;;;7.15;;
43363;SDS011;40636;52.424;-1.948;2023-04-24T00:57:29;11.15;;;7.68;;
43363;SDS011;40636;52.424;-1.948;2023-04-24T00:59:56;11.80;;;7.78;;
43363;SDS011;40636;52.424;-1.948;2023-04-24T01:02:24;11.60;;;7.50;;
43363;SDS011;40636;52.424;-1.948;2023-04-24T01:04:51;12.10;;;7.50;;
43363;SDS011;40636;52.424;-1.948;2023-04-24T01:07:19;11.77;;;7.82;;
43363;SDS011;40636;52.424;-1.948;2023-04-24T01:09:47;16.08;;;9.00;;
43363;SDS011;40636;52.424;-1.948;2023-04-24T01:12:17;11.45;;;7.40;;
43363;SDS011;40636;52.424;-1.948;2023-04-24T01:14:45;10.85;;;8.30;;
43363;SDS011;40636;52.424;-1.948;2023-04-24T01:17:12;14.55;;;8.48;;
43363;SDS011;40636;52.424;-1.948;2023-04-24T01:19:38;13.18;;;8.52;;
43363;SDS011;40636;52.424;-1.948;2023-04-24T01:22:08;13.57;;;7.85;;
43363;SDS011;40636;52.424;-1.948;2023-04-24T01:24:38;12.90;;;8.20;;
43363;SDS011;40636;52.424;-1.948;2023-04-24T01:27:05;13.95;;;7.63;;
43363;SDS011;40636;52.424;-1.948;2023-04-24T01:29:32;15.27;;;8.52;;
43363;SDS011;40636;52.424;-1.948;2023-04-24T01:31:59;11.25;;;7.05;;
43363;SDS011;40636;52.424;-1.948;2023-04-24T01:34:26;12.07;;;6.95;;
43363;SDS011;40636;52.424;-1.948;2023-04-24T01:36:53;12.57;;;7.63;;
43363;SDS011;40636;52.424;-1.948;2023-04-24T01:39:20;13.10;;;7.10;;
43363;SDS011;40636;52.424;-1.948;2023-04-24T01:41:51;10.23;;;5.80;;
43363;SDS011;40636;52.424;-1.948;2023-04-24T01:44:18;15.10;;;7.72;;
43363;SDS011;40636;52.424;-1.948;2023-04-24T01:46:45;11.30;;;6.85;;
43363;SDS011;40636;52.424;-1.948;2023-04-24T01:49:12;12.18;;;6.10;;
43363;SDS011;40636;52.424;-1.948;2023-04-24T01:51:39;12.52;;;6.60;;
43363;SDS011;40636;52.424;-1.948;2023-04-24T01:54:05;12.88;;;6.38;;
43363;SDS011;40636;52.424;-1.948;2023-04-24T01:56:35;12.02;;;7.63;;
43363;SDS011;40636;52.424;-1.948;2023-04-24T01:59:06;11.35;;;6.60;;
43363;SDS011;40636;52.424;-1.948;2023-04-24T02:01:35;13.60;;;6.05;;
43363;SDS011;40636;52.424;-1.948;2023-04-24T02:04:03;13.80;;;6.15;;
43363;SDS011;40636;52.424;-1.948;2023-04-24T02:06:31;11.77;;;5.97;;
43363;SDS011;40636;52.424;-1.948;2023-04-24T02:08:58;14.95;;;6.35;;
43363;SDS011;40636;52.424;-1.948;2023-04-24T02:11:25;12.57;;;5.68;;
43363;SDS011;40636;52.424;-1.948;2023-04-24T02:13:52;9.65;;;6.90;;
43363;SDS011;40636;52.424;-1.948;2023-04-24T02:16:19;13.55;;;6.57;;
43363;SDS011;40636;52.424;-1.948;2023-04-24T02:18:46;13.57;;;6.40;;
43363;SDS011;40636;52.424;-1.948;2023-04-24T02:21:13;16.13;;;7.97;;
43363;SDS011;40636;52.424;-1.948;2023-04-24T02:23:39;15.15;;;7.50;;
43363;SDS011;40636;52.424;-1.948;2023-04-24T02:26:06;11.35;;;7.13;;
43363;SDS011;40636;52.424;-1.948;2023-04-24T02:28:33;10.63;;;6.80;;
43363;SDS011;40636;52.424;-1.948;2023-04-24T02:30:59;12.60;;;7.00;;
43363;SDS011;40636;52.424;-1.948;2023-04-24T02:33:26;9.63;;;6.35;;
43363;SDS011;40636;52.424;-1.948;2023-04-24T02:35:53;10.63;;;7.15;;
43363;SDS011;40636;52.424;-1.948;2023-04-24T02:38:20;12.15;;;6.47;;
43363;SDS011;40636;52.424;-1.948;2023-04-24T02:40:46;10.32;;;6.78;;
43363;SDS011;40636;52.424;-1.948;2023-04-24T02:43:13;14.50;;;7.03;;
43363;SDS011;40636;52.424;-1.948;2023-04-24T02:45:39;12.50;;;6.55;;
43363;SDS011;40636;52.424;-1.948;2023-04-24T02:48:06;9.57;;;6.40;;
43363;SDS011;40636;52.424;-1.948;2023-04-24T02:50:33;14.07;;;6.75;;
43363;SDS011;40636;52.424;-1.948;2023-04-24T02:52:59;13.20;;;6.97;;
43363;SDS011;40636;52.424;-1.948;2023-04-24T02:55:26;11.77;;;6.95;;
43363;SDS011;40636;52.424;-1.948;2023-04-24T02:57:53;13.75;;;7.18;;
43363;SDS011;40636;52.424;-1.948;2023-04-24T03:00:20;14.05;;;7.93;;
43363;SDS011;40636;52.424;-1.948;2023-04-24T03:02:46;13.95;;;6.18;;
43363;SDS011;40636;52.424;-1.948;2023-04-24T03:05:13;13.98;;;7.38;;
43363;SDS011;40636;52.424;-1.948;2023-04-24T03:07:40;14.55;;;6.60;;
43363;SDS011;40636;52.424;-1.948;2023-04-24T03:10:07;11.90;;;6.05;;
43363;SDS011;40636;52.424;-1.948;2023-04-24T03:12:34;13.70;;;6.78;;
43363;SDS011;40636;52.424;-1.948;2023-04-24T03:15:00;13.85;;;6.95;;
43363;SDS011;40636;52.424;-1.948;2023-04-24T03:17:28;12.55;;;6.93;;
43363;SDS011;40636;52.424;-1.948;2023-04-24T03:19:55;12.50;;;6.93;;
43363;SDS011;40636;52.424;-1.948;2023-04-24T03:22:22;12.75;;;6.85;;
43363;SDS011;40636;52.424;-1.948;2023-04-24T03:24:48;9.98;;;6.55;;
43363;SDS011;40636;52.424;-1.948;2023-04-24T03:27:15;11.07;;;6.25;;
43363;SDS011;40636;52.424;-1.948;2023-04-24T03:29:42;14.20;;;6.63;;
43363;SDS011;40636;52.424;-1.948;2023-04-24T03:32:09;16.25;;;6.10;;
43363;SDS011;40636;52.424;-1.948;2023-04-24T03:34:35;16.50;;;7.88;;
43363;SDS011;40636;52.424;-1.948;2023-04-24T03:37:02;13.15;;;6.03;;
43363;SDS011;40636;52.424;-1.948;2023-04-24T03:39:29;9.45;;;5.90;;
43363;SDS011;40636;52.424;-1.948;2023-04-24T03:41:55;14.38;;;7.55;;
43363;SDS011;40636;52.424;-1.948;2023-04-24T03:44:22;14.65;;;5.90;;
43363;SDS011;40636;52.424;-1.948;2023-04-24T03:46:49;10.45;;;4.55;;
43363;SDS011;40636;52.424;-1.948;2023-04-24T03:49:15;10.43;;;4.30;;
43363;SDS011;40636;52.424;-1.948;2023-04-24T03:51:42;9.23;;;3.60;;
43363;SDS011;40636;52.424;-1.948;2023-04-24T03:54:09;6.60;;;3.80;;
43363;SDS011;40636;52.424;-1.948;2023-04-24T03:56:35;9.70;;;3.88;;
43363;SDS011;40636;52.424;-1.948;2023-04-24T03:59:02;8.05;;;2.83;;
43363;SDS011;40636;52.424;-1.948;2023-04-24T04:01:28;6.28;;;3.13;;
43363;SDS011;40636;52.424;-1.948;2023-04-24T04:03:57;5.95;;;3.20;;
43363;SDS011;40636;52.424;-1.948;2023-04-24T04:06:23;7.32;;;3.05;;
43363;SDS011;40636;52.424;-1.948;2023-04-24T04:08:50;6.85;;;2.80;;
43363;SDS011;40636;52.424;-1.948;2023-04-24T04:11:17;10.15;;;3.20;;
43363;SDS011;40636;52.424;-1.948;2023-04-24T04:13:43;3.90;;;2.50;;
43363;SDS011;40636;52.424;-1.948;2023-04-24T04:16:10;5.00;;;3.20;;
43363;SDS011;40636;52.424;-1.948;2023-04-24T04:18:37;4.18;;;2.55;;
43363;SDS011;40636;52.424;-1.948;2023-04-24T04:21:04;6.95;;;2.92;;
43363;SDS011;40636;52.424;-1.948;2023-04-24T04:23:30;5.85;;;2.58;;
43363;SDS011;40636;52.424;-1.948;2023-04-24T04:25:58;8.40;;;2.50;;
43363;SDS011;40636;52.424;-1.948;2023-04-24T04:28:25;10.57;;;3.00;;
43363;SDS011;40636;52.424;-1.948;2023-04-24T04:30:52;3.83;;;1.98;;
43363;SDS011;40636;52.424;-1.948;2023-04-24T04:33:20;3.30;;;1.98;;
43363;SDS011;40636;52.424;-1.948;2023-04-24T04:35:47;6.57;;;2.22;;
43363;SDS011;40636;52.424;-1.948;2023-04-24T04:38:23;3.90;;;2.45;;
43363;SDS011;40636;52.424;-1.948;2023-04-24T04:40:50;6.63;;;2.55;;
43363;SDS011;40636;52.424;-1.948;2023-04-24T04:43:16;4.45;;;2.22;;
43363;SDS011;40636;52.424;-1.948;2023-04-24T04:45:43;5.72;;;2.33;;
43363;SDS011;40636;52.424;-1.948;2023-04-24T04:48:11;8.00;;;3.13;;
43363;SDS011;40636;52.424;-1.948;2023-04-24T04:50:39;4.15;;;2.05;;
43363;SDS011;40636;52.424;-1.948;2023-04-24T04:53:06;5.30;;;2.75;;
43363;SDS011;40636;52.424;-1.948;2023-04-24T04:55:33;7.20;;;2.38;;
43363;SDS011;40636;52.424;-1.948;2023-04-24T04:57:59;4.28;;;2.05;;
43363;SDS011;40636;52.424;-1.948;2023-04-24T05:00:27;4.47;;;2.53;;
43363;SDS011;40636;52.424;-1.948;2023-04-24T05:02:55;5.55;;;2.33;;
43363;SDS011;40636;52.424;-1.948;2023-04-24T05:05:38;6.75;;;2.58;;
43363;SDS011;40636;52.424;-1.948;2023-04-24T05:08:07;5.40;;;2.47;;
43363;SDS011;40636;52.424;-1.948;2023-04-24T05:10:49;6.60;;;3.15;;
43363;SDS011;40636;52.424;-1.948;2023-04-24T05:13:15;8.45;;;2.80;;
43363;SDS011;40636;52.424;-1.948;2023-04-24T05:15:47;3.40;;;1.98;;
43363;SDS011;40636;52.424;-1.948;2023-04-24T05:18:14;4.60;;;2.50;;
43363;SDS011;40636;52.424;-1.948;2023-04-24T05:20:41;9.38;;;3.25;;
43363;SDS011;40636;52.424;-1.948;2023-04-24T05:23:10;3.55;;;2.40;;
43363;SDS011;40636;52.424;-1.948;2023-04-24T05:25:38;7.47;;;2.47;;
43363;SDS011;40636;52.424;-1.948;2023-04-24T05:28:06;7.88;;;3.42;;
43363;SDS011;40636;52.424;-1.948;2023-04-24T05:30:33;8.05;;;2.63;;
43363;SDS011;40636;52.424;-1.948;2023-04-24T05:32:59;7.53;;;3.40;;
43363;SDS011;40636;52.424;-1.948;2023-04-24T05:35:27;4.78;;;2.53;;
43363;SDS011;40636;52.424;-1.948;2023-04-24T05:37:54;4.82;;;2.30;;
43363;SDS011;40636;52.424;-1.948;2023-04-24T05:40:21;6.68;;;2.70;;
43363;SDS011;40636;52.424;-1.948;2023-04-24T05:42:47;6.53;;;2.58;;
43363;SDS011;40636;52.424;-1.948;2023-04-24T05:45:14;11.30;;;2.65;;
43363;SDS011;40636;52.424;-1.948;2023-04-24T05:47:43;3.22;;;2.03;;
43363;SDS011;40636;52.424;-1.948;2023-04-24T05:50:10;5.65;;;2.05;;
43363;SDS011;40636;52.424;-1.948;2023-04-24T05:52:37;8.38;;;3.53;;
43363;SDS011;40636;52.424;-1.948;2023-04-24T05:55:04;3.75;;;2.13;;
43363;SDS011;40636;52.424;-1.948;2023-04-24T05:57:31;3.33;;;1.92;;
43363;SDS011;40636;52.424;-1.948;2023-04-24T05:59:58;7.45;;;2.20;;
43363;SDS011;40636;52.424;-1.948;2023-04-24T06:02:24;5.50;;;2.00;;
43363;SDS011;40636;52.424;-1.948;2023-04-24T06:04:51;3.47;;;2.20;;
43363;SDS011;40636;52.424;-1.948;2023-04-24T06:07:18;9.27;;;2.72;;
43363;SDS011;40636;52.424;-1.948;2023-04-24T06:09:45;8.18;;;2.03;;
43363;SDS011;40636;52.424;-1.948;2023-04-24T06:12:11;3.42;;;1.92;;
43363;SDS011;40636;52.424;-1.948;2023-04-24T06:14:38;6.25;;;2.00;;
43363;SDS011;40636;52.424;-1.948;2023-04-24T06:17:04;3.58;;;2.00;;
43363;SDS011;40636;52.424;-1.948;2023-04-24T06:19:31;5.57;;;2.15;;
43363;SDS011;40636;52.424;-1.948;2023-04-24T06:21:58;4.90;;;2.53;;
43363;SDS011;40636;52.424;-1.948;2023-04-24T06:24:28;6.18;;;2.00;;
43363;SDS011;40636;52.424;-1.948;2023-04-24T06:26:54;7.53;;;1.77;;
43363;SDS011;40636;52.424;-1.948;2023-04-24T06:29:23;3.30;;;2.63;;
43363;SDS011;40636;52.424;-1.948;2023-04-24T06:31:49;5.93;;;1.75;;
43363;SDS011;40636;52.424;-1.948;2023-04-24T06:34:16;2.13;;;1.50;;
43363;SDS011;40636;52.424;-1.948;2023-04-24T06:36:43;4.25;;;1.85;;
43363;SDS011;40636;52.424;-1.948;2023-04-24T06:39:10;5.38;;;1.80;;
43363;SDS011;40636;52.424;-1.948;2023-04-24T06:41:36;4.97;;;2.13;;
43363;SDS011;40636;52.424;-1.948;2023-04-24T06:44:03;5.32;;;2.55;;
43363;SDS011;40636;52.424;-1.948;2023-04-24T06:46:30;4.07;;;2.10;;
43363;SDS011;40636;52.424;-1.948;2023-04-24T06:48:57;5.55;;;2.10;;
43363;SDS011;40636;52.424;-1.948;2023-04-24T06:51:24;6.15;;;2.33;;
43363;SDS011;40636;52.424;-1.948;2023-04-24T06:53:53;4.38;;;1.80;;
43363;SDS011;40636;52.424;-1.948;2023-04-24T06:56:20;3.88;;;2.35;;
43363;SDS011;40636;52.424;-1.948;2023-04-24T06:58:46;4.60;;;2.22;;
43363;SDS011;40636;52.424;-1.948;2023-04-24T07:01:13;4.47;;;1.73;;
43363;SDS011;40636;52.424;-1.948;2023-04-24T07:03:40;3.65;;;1.30;;
43363;SDS011;40636;52.424;-1.948;2023-04-24T07:06:07;3.15;;;2.25;;
43363;SDS011;40636;52.424;-1.948;2023-04-24T07:08:34;2.25;;;1.40;;
43363;SDS011;40636;52.424;-1.948;2023-04-24T07:11:02;2.60;;;1.67;;
43363;SDS011;40636;52.424;-1.948;2023-04-24T07:13:29;3.25;;;1.48;;
43363;SDS011;40636;52.424;-1.948;2023-04-24T07:15:56;4.72;;;2.30;;
43363;SDS011;40636;52.424;-1.948;2023-04-24T07:18:22;3.70;;;1.50;;
43363;SDS011;40636;52.424;-1.948;2023-04-24T07:20:49;6.10;;;1.73;;
43363;SDS011;40636;52.424;-1.948;2023-04-24T07:23:17;2.65;;;1.83;;
43363;SDS011;40636;52.424;-1.948;2023-04-24T07:25:44;5.80;;;2.47;;
43363;SDS011;40636;52.424;-1.948;2023-04-24T07:28:10;2.97;;;1.60;;
43363;SDS011;40636;52.424;-1.948;2023-04-24T07:30:37;2.28;;;1.63;;
43363;SDS011;40636;52.424;-1.948;2023-04-24T07:33:03;3.25;;;1.85;;
43363;SDS011;40636;52.424;-1.948;2023-04-24T07:35:30;5.22;;;1.77;;
43363;SDS011;40636;52.424;-1.948;2023-04-24T07:37:57;2.65;;;1.15;;
43363;SDS011;40636;52.424;-1.948;2023-04-24T07:40:24;2.22;;;1.58;;
43363;SDS011;40636;52.424;-1.948;2023-04-24T07:42:50;6.63;;;1.88;;
43363;SDS011;40636;52.424;-1.948;2023-04-24T07:45:17;3.25;;;1.60;;
43363;SDS011;40636;52.424;-1.948;2023-04-24T07:47:43;4.53;;;1.40;;
43363;SDS011;40636;52.424;-1.948;2023-04-24T07:50:12;5.03;;;1.77;;
43363;SDS011;40636;52.424;-1.948;2023-04-24T07:52:39;4.38;;;1.98;;
43363;SDS011;40636;52.424;-1.948;2023-04-24T07:55:06;6.35;;;1.75;;
43363;SDS011;40636;52.424;-1.948;2023-04-24T07:57:33;3.60;;;1.17;;
43363;SDS011;40636;52.424;-1.948;2023-04-24T08:00:00;2.50;;;1.40;;
43363;SDS011;40636;52.424;-1.948;2023-04-24T08:02:27;3.38;;;1.60;;
43363;SDS011;40636;52.424;-1.948;2023-04-24T08:04:53;2.83;;;1.45;;
43363;SDS011;40636;52.424;-1.948;2023-04-24T08:07:21;3.20;;;1.35;;
43363;SDS011;40636;52.424;-1.948;2023-04-24T08:09:48;4.68;;;1.80;;
43363;SDS011;40636;52.424;-1.948;2023-04-24T08:12:15;3.70;;;1.98;;
43363;SDS011;40636;52.424;-1.948;2023-04-24T08:14:41;2.53;;;1.52;;
43363;SDS011;40636;52.424;-1.948;2023-04-24T08:17:08;5.93;;;1.80;;
43363;SDS011;40636;52.424;-1.948;2023-04-24T08:19:35;4.82;;;1.63;;
43363;SDS011;40636;52.424;-1.948;2023-04-24T08:22:02;7.32;;;2.50;;
43363;SDS011;40636;52.424;-1.948;2023-04-24T08:24:30;2.72;;;2.30;;
43363;SDS011;40636;52.424;-1.948;2023-04-24T08:26:58;5.30;;;2.45;;
43363;SDS011;40636;52.424;-1.948;2023-04-24T08:29:24;1.88;;;1.20;;
43363;SDS011;40636;52.424;-1.948;2023-04-24T08:31:51;2.90;;;1.80;;
43363;SDS011;40636;52.424;-1.948;2023-04-24T08:34:21;4.15;;;1.92;;
43363;SDS011;40636;52.424;-1.948;2023-04-24T08:36:48;3.17;;;1.88;;
43363;SDS011;40636;52.424;-1.948;2023-04-24T08:39:15;3.25;;;1.35;;
43363;SDS011;40636;52.424;-1.948;2023-04-24T08:41:42;3.78;;;2.05;;
43363;SDS011;40636;52.424;-1.948;2023-04-24T08:44:09;7.38;;;1.50;;
43363;SDS011;40636;52.424;-1.948;2023-04-24T08:46:37;3.30;;;1.38;;
43363;SDS011;40636;52.424;-1.948;2023-04-24T08:49:04;7.00;;;1.65;;
43363;SDS011;40636;52.424;-1.948;2023-04-24T08:51:31;2.22;;;1.33;;
43363;SDS011;40636;52.424;-1.948;2023-04-24T08:53:58;3.20;;;1.50;;
43363;SDS011;40636;52.424;-1.948;2023-04-24T08:56:24;7.00;;;1.92;;
43363;SDS011;40636;52.424;-1.948;2023-04-24T08:58:51;6.63;;;2.08;;
43363;SDS011;40636;52.424;-1.948;2023-04-24T09:01:20;2.55;;;1.40;;
43363;SDS011;40636;52.424;-1.948;2023-04-24T09:03:48;2.08;;;1.27;;
43363;SDS011;40636;52.424;-1.948;2023-04-24T09:06:16;7.05;;;1.73;;
43363;SDS011;40636;52.424;-1.948;2023-04-24T09:08:45;6.28;;;1.65;;
43363;SDS011;40636;52.424;-1.948;2023-04-24T09:11:12;4.63;;;1.80;;
43363;SDS011;40636;52.424;-1.948;2023-04-24T09:13:38;3.53;;;2.13;;
43363;SDS011;40636;52.424;-1.948;2023-04-24T09:16:05;3.08;;;1.92;;
43363;SDS011;40636;52.424;-1.948;2023-04-24T09:18:32;4.65;;;2.05;;
43363;SDS011;40636;52.424;-1.948;2023-04-24T09:21:00;2.13;;;1.58;;
43363;SDS011;40636;52.424;-1.948;2023-04-24T09:23:29;3.47;;;1.70;;
43363;SDS011;40636;52.424;-1.948;2023-04-24T09:25:57;2.80;;;1.60;;
43363;SDS011;40636;52.424;-1.948;2023-04-24T09:28:27;2.22;;;2.00;;
43363;SDS011;40636;52.424;-1.948;2023-04-24T09:33:29;3.88;;;1.95;;
43363;SDS011;40636;52.424;-1.948;2023-04-24T09:35:55;2.95;;;1.75;;
43363;SDS011;40636;52.424;-1.948;2023-04-24T09:41:02;1.92;;;1.60;;
43363;SDS011;40636;52.424;-1.948;2023-04-24T09:43:31;2.38;;;1.50;;
43363;SDS011;40636;52.424;-1.948;2023-04-24T09:46:00;2.70;;;1.48;;
43363;SDS011;40636;52.424;-1.948;2023-04-24T09:48:35;2.88;;;2.33;;
43363;SDS011;40636;52.424;-1.948;2023-04-24T09:51:04;3.45;;;1.85;;
43363;SDS011;40636;52.424;-1.948;2023-04-24T09:53:37;5.05;;;1.60;;
43363;SDS011;40636;52.424;-1.948;2023-04-24T09:56:09;3.03;;;1.25;;
43363;SDS011;40636;52.424;-1.948;2023-04-24T09:58:36;2.17;;;1.40;;
43363;SDS011;40636;52.424;-1.948;2023-04-24T10:01:03;4.72;;;1.73;;
43363;SDS011;40636;52.424;-1.948;2023-04-24T10:03:30;4.88;;;2.20;;
43363;SDS011;40636;52.424;-1.948;2023-04-24T10:05:58;4.65;;;1.33;;
43363;SDS011;40636;52.424;-1.948;2023-04-24T10:08:26;2.53;;;2.13;;
43363;SDS011;40636;52.424;-1.948;2023-04-24T10:10:59;5.40;;;1.85;;
43363;SDS011;40636;52.424;-1.948;2023-04-24T10:13:26;4.05;;;1.42;;
43363;SDS011;40636;52.424;-1.948;2023-04-24T10:15:54;3.17;;;1.17;;
43363;SDS011;40636;52.424;-1.948;2023-04-24T10:18:22;1.20;;;1.10;;
43363;SDS011;40636;52.424;-1.948;2023-04-24T10:20:51;3.50;;;1.90;;
43363;SDS011;40636;52.424;-1.948;2023-04-24T10:23:21;1.58;;;1.23;;
43363;SDS011;40636;52.424;-1.948;2023-04-24T10:25:49;3.50;;;1.20;;
43363;SDS011;40636;52.424;-1.948;2023-04-24T10:28:17;5.35;;;1.73;;
43363;SDS011;40636;52.424;-1.948;2023-04-24T10:30:45;3.15;;;1.48;;
43363;SDS011;40636;52.424;-1.948;2023-04-24T10:33:12;1.42;;;1.23;;
43363;SDS011;40636;52.424;-1.948;2023-04-24T10:35:41;2.13;;;1.80;;
43363;SDS011;40636;52.424;-1.948;2023-04-24T10:38:12;2.85;;;1.60;;
43363;SDS011;40636;52.424;-1.948;2023-04-24T10:40:40;1.73;;;1.20;;
43363;SDS011;40636;52.424;-1.948;2023-04-24T10:43:08;1.42;;;1.20;;
43363;SDS011;40636;52.424;-1.948;2023-04-24T10:45:38;2.90;;;1.77;;
43363;SDS011;40636;52.424;-1.948;2023-04-24T10:48:06;4.05;;;1.05;;
43363;SDS011;40636;52.424;-1.948;2023-04-24T10:50:47;4.45;;;2.10;;
43363;SDS011;40636;52.424;-1.948;2023-04-24T10:53:19;3.10;;;1.33;;
43363;SDS011;40636;52.424;-1.948;2023-04-24T10:55:48;1.80;;;1.70;;
43363;SDS011;40636;52.424;-1.948;2023-04-24T10:58:17;2.50;;;1.30;;
43363;SDS011;40636;52.424;-1.948;2023-04-24T11:00:58;3.13;;;2.10;;
43363;SDS011;40636;52.424;-1.948;2023-04-24T11:05:59;2.40;;;1.55;;
43363;SDS011;40636;52.424;-1.948;2023-04-24T11:08:38;3.53;;;1.33;;
43363;SDS011;40636;52.424;-1.948;2023-04-24T11:19:08;3.17;;;1.38;;
43363;SDS011;40636;52.424;-1.948;2023-04-24T11:21:42;2.95;;;1.60;;
43363;SDS011;40636;52.424;-1.948;2023-04-24T11:24:27;1.80;;;1.35;;
43363;SDS011;40636;52.424;-1.948;2023-04-24T11:26:56;3.53;;;1.20;;
43363;SDS011;40636;52.424;-1.948;2023-04-24T11:29:41;8.60;;;2.03;;
43363;SDS011;40636;52.424;-1.948;2023-04-24T11:32:14;4.60;;;1.40;;
43363;SDS011;40636;52.424;-1.948;2023-04-24T11:37:54;5.05;;;1.48;;
43363;SDS011;40636;52.424;-1.948;2023-04-24T11:40:41;4.10;;;1.60;;
43363;SDS011;40636;52.424;-1.948;2023-04-24T11:43:08;2.97;;;1.10;;
43363;SDS011;40636;52.424;-1.948;2023-04-24T11:45:35;3.08;;;1.50;;
43363;SDS011;40636;52.424;-1.948;2023-04-24T11:48:02;4.22;;;1.63;;
43363;SDS011;40636;52.424;-1.948;2023-04-24T11:50:29;1.85;;;1.45;;
43363;SDS011;40636;52.424;-1.948;2023-04-24T11:52:56;4.32;;;1.40;;
43363;SDS011;40636;52.424;-1.948;2023-04-24T11:55:24;3.22;;;2.13;;
43363;SDS011;40636;52.424;-1.948;2023-04-24T11:57:54;2.35;;;1.42;;
43363;SDS011;40636;52.424;-1.948;2023-04-24T12:00:29;6.63;;;1.63;;
43363;SDS011;40636;52.424;-1.948;2023-04-24T12:03:04;3.38;;;1.50;;
43363;SDS011;40636;52.424;-1.948;2023-04-24T12:05:35;3.30;;;1.63;;
43363;SDS011;40636;52.424;-1.948;2023-04-24T12:08:03;3.53;;;1.77;;
43363;SDS011;40636;52.424;-1.948;2023-04-24T12:10:30;3.70;;;1.80;;
43363;SDS011;40636;52.424;-1.948;2023-04-24T12:12:59;4.95;;;1.80;;
43363;SDS011;40636;52.424;-1.948;2023-04-24T12:15:26;3.17;;;1.65;;
43363;SDS011;40636;52.424;-1.948;2023-04-24T12:17:54;6.28;;;1.92;;
43363;SDS011;40636;52.424;-1.948;2023-04-24T12:20:29;3.35;;;2.28;;
43363;SDS011;40636;52.424;-1.948;2023-04-24T12:22:59;4.50;;;2.92;;
43363;SDS011;40636;52.424;-1.948;2023-04-24T12:25:31;5.30;;;2.17;;
43363;SDS011;40636;52.424;-1.948;2023-04-24T12:30:33;7.22;;;1.67;;
43363;SDS011;40636;52.424;-1.948;2023-04-24T12:33:02;4.63;;;2.15;;
43363;SDS011;40636;52.424;-1.948;2023-04-24T12:35:30;5.93;;;2.17;;
43363;SDS011;40636;52.424;-1.948;2023-04-24T12:38:06;5.13;;;1.90;;
43363;SDS011;40636;52.424;-1.948;2023-04-24T12:40:39;6.45;;;2.30;;
43363;SDS011;40636;52.424;-1.948;2023-04-24T12:43:14;7.75;;;2.08;;
43363;SDS011;40636;52.424;-1.948;2023-04-24T12:45:42;6.10;;;2.13;;
43363;SDS011;40636;52.424;-1.948;2023-04-24T12:48:08;5.25;;;1.58;;
43363;SDS011;40636;52.424;-1.948;2023-04-24T12:50:35;4.43;;;1.83;;
43363;SDS011;40636;52.424;-1.948;2023-04-24T12:53:02;3.67;;;2.38;;
43363;SDS011;40636;52.424;-1.948;2023-04-24T12:55:29;6.68;;;1.83;;
43363;SDS011;40636;52.424;-1.948;2023-04-24T12:57:56;5.13;;;2.17;;
43363;SDS011;40636;52.424;-1.948;2023-04-24T13:00:23;3.63;;;2.22;;
43363;SDS011;40636;52.424;-1.948;2023-04-24T13:02:49;8.10;;;2.55;;
43363;SDS011;40636;52.424;-1.948;2023-04-24T13:05:16;4.95;;;1.80;;
43363;SDS011;40636;52.424;-1.948;2023-04-24T13:07:43;3.55;;;2.10;;
43363;SDS011;40636;52.424;-1.948;2023-04-24T13:10:10;3.15;;;2.28;;
43363;SDS011;40636;52.424;-1.948;2023-04-24T13:12:37;6.85;;;2.47;;
43363;SDS011;40636;52.424;-1.948;2023-04-24T13:15:05;4.40;;;2.13;;
43363;SDS011;40636;52.424;-1.948;2023-04-24T13:17:32;2.15;;;1.65;;
43363;SDS011;40636;52.424;-1.948;2023-04-24T13:19:59;4.60;;;1.90;;
43363;SDS011;40636;52.424;-1.948;2023-04-24T13:22:26;6.60;;;2.30;;
43363;SDS011;40636;52.424;-1.948;2023-04-24T13:24:53;5.45;;;2.22;;
43363;SDS011;40636;52.424;-1.948;2023-04-24T13:27:20;4.68;;;2.25;;
43363;SDS011;40636;52.424;-1.948;2023-04-24T13:29:47;6.10;;;1.88;;
43363;SDS011;40636;52.424;-1.948;2023-04-24T13:32:14;3.28;;;2.13;;
43363;SDS011;40636;52.424;-1.948;2023-04-24T13:34:41;10.77;;;2.85;;
43363;SDS011;40636;52.424;-1.948;2023-04-24T13:37:08;3.65;;;1.92;;
43363;SDS011;40636;52.424;-1.948;2023-04-24T13:39:35;5.72;;;2.05;;
43363;SDS011;40636;52.424;-1.948;2023-04-24T13:42:02;4.15;;;2.03;;
43363;SDS011;40636;52.424;-1.948;2023-04-24T13:44:30;3.03;;;2.10;;
43363;SDS011;40636;52.424;-1.948;2023-04-24T13:46:57;3.65;;;1.80;;
43363;SDS011;40636;52.424;-1.948;2023-04-24T13:49:25;4.97;;;1.98;;
43363;SDS011;40636;52.424;-1.948;2023-04-24T13:51:53;5.43;;;2.45;;
43363;SDS011;40636;52.424;-1.948;2023-04-24T13:54:21;6.28;;;3.13;;
43363;SDS011;40636;52.424;-1.948;2023-04-24T13:56:49;5.18;;;2.55;;
43363;SDS011;40636;52.424;-1.948;2023-04-24T13:59:17;3.65;;;2.15;;
43363;SDS011;40636;52.424;-1.948;2023-04-24T14:01:43;4.72;;;2.72;;
43363;SDS011;40636;52.424;-1.948;2023-04-24T14:04:11;6.43;;;2.55;;
43363;SDS011;40636;52.424;-1.948;2023-04-24T14:06:38;5.90;;;3.00;;
43363;SDS011;40636;52.424;-1.948;2023-04-24T14:09:05;9.18;;;3.20;;
43363;SDS011;40636;52.424;-1.948;2023-04-24T14:11:33;5.72;;;3.03;;
43363;SDS011;40636;52.424;-1.948;2023-04-24T14:14:00;6.88;;;3.05;;
43363;SDS011;40636;52.424;-1.948;2023-04-24T14:16:27;9.52;;;3.45;;
43363;SDS011;40636;52.424;-1.948;2023-04-24T14:18:55;5.45;;;2.58;;
43363;SDS011;40636;52.424;-1.948;2023-04-24T14:21:22;4.22;;;2.55;;
43363;SDS011;40636;52.424;-1.948;2023-04-24T14:23:48;3.92;;;2.33;;
43363;SDS011;40636;52.424;-1.948;2023-04-24T14:26:15;5.00;;;2.70;;
43363;SDS011;40636;52.424;-1.948;2023-04-24T14:28:42;3.60;;;2.33;;
43363;SDS011;40636;52.424;-1.948;2023-04-24T14:31:15;6.55;;;3.42;;
43363;SDS011;40636;52.424;-1.948;2023-04-24T14:36:12;4.88;;;2.97;;
43363;SDS011;40636;52.424;-1.948;2023-04-24T14:38:40;6.72;;;2.95;;
43363;SDS011;40636;52.424;-1.948;2023-04-24T14:41:06;5.18;;;2.90;;
43363;SDS011;40636;52.424;-1.948;2023-04-24T14:43:39;7.00;;;3.60;;
43363;SDS011;40636;52.424;-1.948;2023-04-24T14:46:06;12.70;;;3.75;;
43363;SDS011;40636;52.424;-1.948;2023-04-24T14:48:33;3.97;;;3.08;;
43363;SDS011;40636;52.424;-1.948;2023-04-24T14:51:00;6.18;;;3.50;;
43363;SDS011;40636;52.424;-1.948;2023-04-24T14:53:27;7.88;;;4.20;;
43363;SDS011;40636;52.424;-1.948;2023-04-24T14:55:54;5.00;;;3.22;;
43363;SDS011;40636;52.424;-1.948;2023-04-24T14:58:21;4.78;;;3.10;;